createdAt,value
2018-07-17T00:02:02.561Z,3.60
2018-07-17T00:04:30.620Z,3.13
2018-07-17T00:06:58.678Z,3.63
2018-07-17T00:09:26.801Z,4.33
2018-07-17T00:11:54.853Z,3.63
2018-07-17T00:14:22.886Z,3.33
2018-07-17T00:16:50.936Z,3.87
2018-07-17T00:19:19.090Z,3.57
2018-07-17T00:21:47.140Z,3.47
2018-07-17T00:24:15.193Z,4.07
2018-07-17T00:26:43.221Z,3.67
2018-07-17T00:29:11.282Z,3.10
2018-07-17T00:31:39.325Z,3.63
2018-07-17T00:34:07.381Z,3.70
2018-07-17T00:36:35.413Z,4.03
2018-07-17T00:39:03.637Z,2.90
2018-07-17T00:41:31.464Z,3.23
2018-07-17T00:43:59.547Z,3.80
2018-07-17T00:46:27.584Z,3.70
2018-07-17T00:48:55.622Z,3.70
2018-07-17T00:51:23.677Z,4.17
2018-07-17T00:53:51.757Z,4.00
2018-07-17T00:56:19.783Z,3.87
2018-07-17T00:58:48.001Z,3.47
2018-07-17T01:01:21.510Z,3.63
2018-07-17T01:03:55.003Z,3.73
2018-07-17T01:06:28.792Z,3.40
2018-07-17T01:09:02.177Z,3.53
2018-07-17T01:11:35.813Z,3.67
2018-07-17T01:14:09.740Z,3.17
2018-07-17T01:16:37.773Z,3.17
2018-07-17T01:19:05.837Z,4.07
2018-07-17T01:21:33.873Z,3.70
2018-07-17T01:24:01.933Z,3.57
2018-07-17T01:26:29.961Z,3.57
2018-07-17T01:28:58.012Z,4.00
2018-07-17T01:31:26.077Z,4.13
2018-07-17T01:33:54.096Z,3.67
2018-07-17T01:36:22.144Z,4.30
2018-07-17T01:38:50.416Z,3.57
2018-07-17T01:41:19.169Z,3.40
2018-07-17T01:43:47.253Z,3.97
2018-07-17T01:46:15.282Z,3.37
2018-07-17T01:48:43.352Z,3.47
2018-07-17T01:51:11.376Z,2.97
2018-07-17T01:53:39.418Z,3.80
2018-07-17T01:56:07.945Z,3.67
2018-07-17T01:58:35.960Z,4.20
2018-07-17T02:01:04.028Z,4.17
2018-07-17T02:03:32.045Z,3.87
2018-07-17T02:06:00.081Z,3.73
2018-07-17T02:08:27.940Z,3.80
2018-07-17T02:10:55.997Z,3.70
2018-07-17T02:13:24.018Z,3.87
2018-07-17T02:15:52.299Z,3.47
2018-07-17T02:18:20.339Z,4.20
2018-07-17T02:20:48.377Z,3.57
2018-07-17T02:23:16.442Z,4.57
2018-07-17T02:25:44.505Z,4.43
2018-07-17T02:28:12.765Z,3.43
2018-07-17T02:30:40.830Z,4.43
2018-07-17T02:33:09.227Z,4.00
2018-07-17T02:35:37.292Z,4.00
2018-07-17T02:38:05.227Z,3.70
2018-07-17T02:40:33.345Z,3.77
2018-07-17T02:43:01.265Z,4.00
2018-07-17T02:45:29.305Z,3.80
2018-07-17T02:47:57.365Z,3.77
2018-07-17T02:50:25.312Z,4.40
2018-07-17T02:52:53.353Z,3.43
2018-07-17T02:55:21.384Z,3.80
2018-07-17T02:57:49.437Z,3.10
2018-07-17T03:00:17.477Z,3.80
2018-07-17T03:02:45.548Z,3.80
2018-07-17T03:05:13.569Z,3.73
2018-07-17T03:07:41.605Z,4.00
2018-07-17T03:10:09.753Z,4.33
2018-07-17T03:12:37.825Z,3.77
2018-07-17T03:15:05.854Z,4.30
2018-07-17T03:17:33.893Z,3.97
2018-07-17T03:20:01.912Z,4.43
2018-07-17T03:22:30.106Z,4.27
2018-07-17T03:24:58.150Z,5.33
2018-07-17T03:27:26.180Z,4.43
2018-07-17T03:29:54.201Z,5.20
2018-07-17T03:32:22.258Z,5.90
2018-07-17T03:34:50.290Z,5.77
2018-07-17T03:37:18.325Z,5.00
2018-07-17T03:39:46.377Z,6.60
2018-07-17T03:42:14.396Z,5.47
2018-07-17T03:44:42.449Z,6.50
2018-07-17T03:47:10.513Z,6.87
2018-07-17T03:49:38.545Z,5.40
2018-07-17T03:52:06.605Z,6.33
2018-07-17T03:54:34.630Z,5.60
2018-07-17T03:57:02.673Z,5.43
2018-07-17T03:59:30.695Z,5.70
2018-07-17T04:01:58.736Z,6.13
2018-07-17T04:04:26.874Z,6.93
2018-07-17T04:06:54.800Z,7.50
2018-07-17T04:09:22.653Z,6.53
2018-07-17T04:11:50.471Z,6.87
2018-07-17T04:14:18.521Z,6.90
2018-07-17T04:16:52.468Z,6.60
2018-07-17T04:19:20.544Z,5.90
2018-07-17T04:21:48.941Z,6.33
2018-07-17T04:24:17.064Z,6.33
2018-07-17T04:26:45.293Z,5.90
2018-07-17T04:29:13.338Z,5.63
2018-07-17T04:31:41.447Z,6.60
2018-07-17T04:34:09.443Z,7.60
2018-07-17T04:36:37.592Z,5.73
2018-07-17T04:39:07.940Z,6.87
2018-07-17T04:41:36.022Z,5.70
2018-07-17T04:44:04.073Z,7.10
2018-07-17T04:46:32.269Z,6.87
2018-07-17T04:49:00.297Z,6.57
2018-07-17T04:51:28.358Z,5.33
2018-07-17T04:53:56.553Z,5.97
2018-07-17T04:56:24.545Z,6.53
2018-07-17T04:58:52.568Z,5.40
2018-07-17T05:01:20.620Z,5.83
2018-07-17T05:03:49.728Z,5.10
2018-07-17T05:06:17.764Z,4.77
2018-07-17T05:08:45.809Z,4.93
2018-07-17T05:11:13.843Z,5.27
2018-07-17T05:13:41.874Z,5.97
2018-07-17T05:16:09.925Z,5.37
2018-07-17T05:18:37.953Z,5.37
2018-07-17T05:21:06.033Z,5.70
2018-07-17T05:23:34.105Z,5.97
2018-07-17T05:26:02.150Z,5.93
2018-07-17T05:28:30.221Z,6.47
2018-07-17T05:30:58.322Z,6.67
2018-07-17T05:33:26.385Z,5.87
2018-07-17T05:35:54.440Z,6.40
2018-07-17T05:38:22.501Z,6.50
2018-07-17T05:40:50.367Z,6.53
2018-07-17T05:43:18.417Z,6.70
2018-07-17T05:45:46.457Z,5.03
2018-07-17T05:48:14.529Z,5.23
2018-07-17T05:50:42.594Z,6.93
2018-07-17T05:53:10.652Z,5.93
2018-07-17T05:55:38.688Z,7.07
2018-07-17T05:58:06.912Z,5.77
2018-07-17T06:00:34.948Z,7.40
2018-07-17T06:03:03.036Z,5.30
2018-07-17T06:05:31.081Z,6.53
2018-07-17T06:07:59.164Z,5.83
2018-07-17T06:10:27.275Z,5.17
2018-07-17T06:12:55.268Z,5.53
2018-07-17T06:15:23.342Z,6.30
2018-07-17T06:17:51.439Z,5.73
2018-07-17T06:20:19.533Z,5.17
2018-07-17T06:22:47.598Z,5.00
2018-07-17T06:25:15.650Z,5.30
2018-07-17T06:27:43.885Z,5.33
2018-07-17T06:30:11.934Z,5.90
2018-07-17T06:32:40.113Z,4.43
2018-07-17T06:35:08.188Z,5.30
2018-07-17T06:37:37.245Z,5.40
2018-07-17T06:40:05.299Z,4.70
2018-07-17T06:42:34.112Z,5.10
2018-07-17T06:45:02.141Z,4.50
2018-07-17T06:47:30.214Z,4.70
2018-07-17T06:49:58.284Z,4.80
2018-07-17T06:52:26.292Z,4.17
2018-07-17T06:54:54.413Z,3.80
2018-07-17T06:57:22.505Z,3.83
2018-07-17T06:59:50.501Z,3.43
2018-07-17T07:02:18.549Z,3.00
2018-07-17T07:04:46.649Z,3.70
2018-07-17T07:07:14.684Z,3.97
2018-07-17T07:09:42.753Z,3.90
2018-07-17T07:12:11.333Z,3.30
2018-07-17T07:14:40.208Z,3.47
2018-07-17T07:17:08.249Z,3.43
2018-07-17T07:19:36.576Z,2.63
2018-07-17T07:22:04.812Z,3.13
2018-07-17T07:24:33.037Z,2.70
2018-07-17T07:27:01.112Z,3.03
2018-07-17T07:29:29.152Z,2.70
2018-07-17T07:31:57.196Z,3.40
2018-07-17T07:34:25.205Z,3.00
2018-07-17T07:36:53.224Z,3.03
2018-07-17T07:39:21.260Z,3.40
2018-07-17T07:41:49.309Z,2.97
2018-07-17T07:44:17.345Z,2.67
2018-07-17T07:46:45.389Z,3.23
2018-07-17T07:49:13.421Z,3.23
2018-07-17T07:51:41.460Z,3.00
2018-07-17T07:54:09.472Z,3.00
2018-07-17T07:56:37.530Z,3.30
2018-07-17T07:59:05.553Z,3.13
2018-07-17T08:01:33.599Z,2.63
2018-07-17T08:04:01.736Z,2.97
2018-07-17T08:06:29.737Z,3.30
2018-07-17T08:08:57.761Z,3.13
2018-07-17T08:11:25.801Z,2.90
2018-07-17T08:13:53.841Z,3.37
2018-07-17T08:16:21.888Z,2.40
2018-07-17T08:18:49.937Z,2.47
2018-07-17T08:21:17.992Z,2.90
2018-07-17T08:23:46.037Z,2.80
2018-07-17T08:26:14.062Z,2.80
2018-07-17T08:28:42.116Z,3.10
2018-07-17T08:31:10.233Z,3.33
2018-07-17T08:33:38.244Z,2.58
2018-07-17T08:36:06.322Z,3.30
2018-07-17T08:38:34.361Z,2.92
2018-07-17T08:41:02.380Z,3.17
2018-07-17T08:43:30.533Z,3.37
2018-07-17T08:45:58.481Z,2.65
2018-07-17T08:48:26.557Z,3.60
2018-07-17T08:50:54.574Z,3.25
2018-07-17T08:53:22.632Z,2.87
2018-07-17T08:55:50.678Z,2.45
2018-07-17T08:58:18.722Z,2.90
2018-07-17T09:00:46.748Z,2.37
2018-07-17T09:03:14.796Z,2.77
2018-07-17T09:05:42.817Z,3.17
2018-07-17T09:08:11.297Z,5.03
2018-07-17T09:10:39.324Z,3.90
2018-07-17T09:13:07.411Z,3.17
2018-07-17T09:15:35.807Z,3.50
2018-07-17T09:18:03.858Z,3.52
2018-07-17T09:20:32.009Z,3.67
2018-07-17T09:23:00.082Z,2.70
2018-07-17T09:25:28.262Z,2.47
2018-07-17T09:27:56.438Z,1.98
2018-07-17T09:30:24.484Z,2.10
2018-07-17T09:32:52.544Z,2.22
2018-07-17T09:35:20.582Z,2.90
2018-07-17T09:37:48.629Z,2.27
2018-07-17T09:40:16.665Z,1.70
2018-07-17T09:42:44.716Z,2.37
2018-07-17T09:45:12.844Z,2.00
2018-07-17T09:47:40.976Z,2.03
2018-07-17T09:50:08.998Z,1.97
2018-07-17T09:52:37.033Z,2.20
2018-07-17T09:55:05.053Z,1.90
2018-07-17T09:57:33.104Z,2.10
2018-07-17T10:00:01.121Z,1.92
2018-07-17T10:02:30.641Z,3.27
2018-07-17T10:04:59.515Z,3.07
2018-07-17T10:07:27.903Z,2.67
2018-07-17T10:09:55.931Z,2.47
2018-07-17T10:12:24.885Z,1.93
2018-07-17T10:14:52.932Z,2.13
2018-07-17T10:17:20.978Z,2.17
2018-07-17T10:19:49.070Z,2.30
2018-07-17T10:22:17.030Z,1.50
2018-07-17T10:24:45.078Z,1.85
2018-07-17T10:27:12.983Z,2.10
2018-07-17T10:29:41.031Z,1.83
2018-07-17T10:32:09.167Z,2.20
2018-07-17T10:34:37.045Z,1.90
2018-07-17T10:37:05.360Z,1.43
2018-07-17T10:39:33.401Z,1.70
2018-07-17T10:42:01.430Z,1.63
2018-07-17T10:44:29.458Z,2.03
2018-07-17T10:46:57.512Z,1.77
2018-07-17T10:49:25.541Z,2.20
2018-07-17T10:51:53.387Z,1.70
2018-07-17T10:54:21.437Z,2.53
2018-07-17T10:56:49.488Z,1.87
2018-07-17T11:02:08.485Z,2.70
2018-07-17T11:04:36.541Z,1.90
2018-07-17T11:07:04.604Z,2.07
2018-07-17T11:09:32.641Z,2.10
2018-07-17T11:12:00.764Z,2.33
2018-07-17T11:14:28.739Z,2.20
2018-07-17T11:16:56.789Z,2.17
2018-07-17T11:19:24.868Z,2.30
2018-07-17T11:21:52.953Z,1.57
2018-07-17T11:24:21.023Z,2.03
2018-07-17T11:26:49.105Z,2.33
2018-07-17T11:29:17.160Z,1.90
2018-07-17T11:31:45.196Z,1.97
2018-07-17T11:34:13.260Z,2.70
2018-07-17T11:36:42.089Z,2.60
2018-07-17T11:39:10.131Z,2.13
2018-07-17T11:41:38.192Z,2.10
2018-07-17T11:44:06.204Z,2.37
2018-07-17T11:46:34.253Z,2.30
2018-07-17T11:49:02.293Z,2.03
2018-07-17T11:51:30.356Z,2.70
2018-07-17T11:53:58.406Z,1.90
2018-07-17T11:56:26.440Z,2.27
2018-07-17T11:58:54.621Z,2.53
2018-07-17T12:01:22.548Z,2.57
2018-07-17T12:03:50.593Z,2.00
2018-07-17T12:06:18.698Z,2.70
2018-07-17T12:08:46.809Z,2.42
2018-07-17T12:11:14.716Z,2.30
2018-07-17T12:13:42.777Z,3.10
2018-07-17T12:16:10.810Z,2.27
2018-07-17T12:33:59.049Z,2.20
2018-07-17T12:36:27.081Z,2.00
2018-07-17T12:38:55.126Z,2.20
2018-07-17T12:41:23.436Z,1.83
2018-07-17T12:43:51.460Z,2.13
2018-07-17T12:46:19.536Z,1.90
2018-07-17T12:48:47.622Z,1.97
2018-07-17T12:51:15.694Z,2.10
2018-07-17T12:53:43.721Z,2.20
2018-07-17T12:56:11.794Z,2.17
2018-07-17T12:58:39.832Z,2.00
2018-07-17T13:01:07.909Z,1.77
2018-07-17T13:03:35.752Z,2.20
2018-07-17T13:06:03.799Z,2.07
2018-07-17T13:08:31.856Z,1.80
2018-07-17T13:10:59.898Z,2.17
2018-07-17T13:13:27.940Z,2.17
2018-07-17T13:15:56.234Z,2.00
2018-07-17T13:18:24.341Z,2.13
2018-07-17T13:20:52.365Z,2.30
2018-07-17T13:23:20.552Z,2.07
2018-07-17T13:25:48.608Z,2.33
2018-07-17T13:28:16.724Z,2.30
2018-07-17T13:30:44.755Z,2.20
2018-07-17T13:33:12.808Z,2.63
2018-07-17T13:35:40.827Z,2.53
2018-07-17T13:38:08.872Z,2.67
2018-07-17T13:40:36.932Z,2.30
2018-07-17T13:43:04.801Z,2.13
2018-07-17T13:45:32.857Z,2.50
2018-07-17T13:48:00.914Z,1.97
2018-07-17T13:50:29.017Z,3.13
2018-07-17T13:52:57.022Z,2.40
2018-07-17T13:55:25.121Z,2.17
2018-07-17T13:57:53.948Z,2.30
2018-07-17T14:00:22.027Z,2.20
2018-07-17T14:02:50.026Z,2.50
2018-07-17T14:05:18.068Z,2.20
2018-07-17T14:07:46.114Z,2.50
2018-07-17T14:10:14.203Z,2.73
2018-07-17T14:12:42.381Z,2.10
2018-07-17T14:15:10.133Z,2.27
2018-07-17T14:17:38.184Z,2.13
2018-07-17T14:20:06.249Z,2.87
2018-07-17T14:22:34.298Z,2.63
2018-07-17T14:25:02.336Z,2.53
2018-07-17T14:27:30.391Z,2.20
2018-07-17T14:29:58.437Z,2.67
2018-07-17T14:32:26.468Z,2.73
2018-07-17T14:34:54.524Z,2.50
2018-07-17T14:37:22.574Z,2.97
2018-07-17T14:39:50.688Z,2.73
2018-07-17T14:42:18.702Z,2.33
2018-07-17T14:44:46.761Z,3.00
2018-07-17T14:47:14.813Z,2.80
2018-07-17T14:49:42.864Z,2.63
2018-07-17T14:52:10.715Z,2.43
2018-07-17T14:54:38.746Z,3.10
2018-07-17T14:57:06.810Z,2.37
2018-07-17T14:59:34.841Z,2.60
2018-07-17T15:02:02.877Z,2.73
2018-07-17T15:04:30.945Z,2.70
2018-07-17T15:06:58.981Z,2.90
2018-07-17T15:09:27.061Z,2.80
2018-07-17T15:11:55.074Z,2.47
2018-07-17T15:14:23.132Z,2.83
2018-07-17T15:16:51.218Z,2.80
2018-07-17T15:19:19.353Z,3.07
2018-07-17T15:21:47.386Z,2.77
2018-07-17T15:24:15.480Z,3.07
2018-07-17T15:26:46.523Z,2.77
2018-07-17T15:29:14.792Z,3.07
2018-07-17T15:31:42.822Z,3.13
2018-07-17T15:34:10.850Z,3.17
2018-07-17T15:36:38.900Z,2.63
2018-07-17T15:39:08.650Z,2.53
2018-07-17T15:41:36.778Z,3.07
2018-07-17T15:44:04.824Z,2.90
2018-07-17T15:46:32.876Z,2.60
2018-07-17T15:49:00.922Z,2.80
2018-07-17T15:51:29.093Z,2.90
2018-07-17T15:53:57.142Z,2.70
2018-07-17T15:56:25.190Z,2.63
2018-07-17T15:58:53.323Z,2.50
2018-07-17T16:01:21.437Z,2.30
2018-07-17T16:03:49.493Z,2.97
2018-07-17T16:06:17.669Z,3.07
2018-07-17T16:08:45.733Z,2.93
2018-07-17T16:11:13.756Z,2.37
2018-07-17T16:13:41.879Z,3.17
2018-07-17T16:16:09.854Z,2.70
2018-07-17T16:18:37.932Z,2.67
2018-07-17T16:21:06.403Z,2.20
2018-07-17T16:23:34.453Z,2.83
2018-07-17T16:26:02.533Z,2.33
2018-07-17T16:28:30.594Z,2.50
2018-07-17T16:30:58.647Z,2.67
2018-07-17T16:33:26.694Z,2.40
2018-07-17T16:35:54.808Z,2.27
2018-07-17T16:38:22.869Z,2.33
2018-07-17T16:40:50.898Z,3.37
2018-07-17T16:43:18.956Z,3.33
2018-07-17T16:45:47.009Z,2.37
2018-07-17T16:48:15.065Z,2.27
2018-07-17T16:50:43.109Z,2.13
2018-07-17T16:53:11.177Z,2.30
2018-07-17T16:55:39.218Z,2.70
2018-07-17T16:58:07.301Z,2.77
2018-07-17T17:00:35.366Z,2.47
2018-07-17T17:03:03.404Z,2.67
2018-07-17T17:05:31.736Z,2.90
2018-07-17T17:07:59.804Z,2.90
2018-07-17T17:10:27.857Z,2.50
2018-07-17T17:12:55.920Z,3.63
2018-07-17T17:15:23.996Z,2.30
2018-07-17T17:17:52.057Z,2.20
2018-07-17T17:20:20.252Z,2.43
2018-07-17T17:22:48.321Z,2.13
2018-07-17T17:25:16.366Z,2.20
2018-07-17T17:27:44.430Z,2.20
2018-07-17T17:30:12.472Z,2.57
2018-07-17T17:32:40.536Z,2.37
2018-07-17T17:35:08.600Z,2.10
2018-07-17T17:37:36.645Z,2.90
2018-07-17T17:40:04.726Z,2.57
2018-07-17T17:42:32.772Z,3.43
2018-07-17T17:45:00.832Z,3.37
2018-07-17T17:47:28.892Z,3.20
2018-07-17T17:49:56.978Z,3.80
2018-07-17T17:52:25.016Z,3.80
2018-07-17T17:54:53.073Z,4.20
2018-07-17T17:57:21.132Z,4.13
2018-07-17T17:59:49.193Z,4.20
2018-07-17T18:02:17.821Z,4.97
2018-07-17T18:04:45.780Z,4.03
2018-07-17T18:07:13.818Z,4.10
2018-07-17T18:09:41.877Z,3.70
2018-07-17T18:12:10.149Z,3.77
2018-07-17T18:14:38.135Z,3.10
2018-07-17T18:17:06.205Z,3.63
2018-07-17T18:19:34.296Z,3.20
2018-07-17T18:22:02.317Z,3.13
2018-07-17T18:24:30.353Z,3.97
2018-07-17T18:26:58.459Z,4.70
2018-07-17T18:29:26.460Z,4.13
2018-07-17T18:31:54.521Z,3.10
2018-07-17T18:34:22.655Z,3.23
2018-07-17T18:36:50.656Z,4.47
2018-07-17T18:39:18.721Z,4.07
2018-07-17T18:41:46.785Z,3.57
2018-07-17T18:44:14.841Z,3.77
2018-07-17T18:46:42.874Z,3.20
2018-07-17T18:49:10.938Z,3.70
2018-07-17T18:51:38.976Z,4.10
2018-07-17T18:54:07.046Z,3.50
2018-07-17T18:56:35.085Z,23.70
2018-07-17T18:59:02.940Z,9.87
2018-07-17T19:01:30.976Z,4.83
2018-07-17T19:03:59.032Z,4.10
2018-07-17T19:06:27.052Z,4.33
2018-07-17T19:08:55.123Z,4.10
2018-07-17T19:11:23.233Z,4.60
2018-07-17T19:13:51.212Z,5.23
2018-07-17T19:16:19.262Z,4.93
2018-07-17T19:18:47.309Z,6.07
2018-07-17T19:21:15.400Z,5.30
2018-07-17T19:23:43.457Z,5.97
2018-07-17T19:26:11.487Z,5.40
2018-07-17T19:28:39.589Z,4.73
2018-07-17T19:31:07.664Z,4.40
2018-07-17T19:33:35.738Z,5.10
2018-07-17T19:36:03.810Z,4.63
2018-07-17T19:38:31.854Z,5.13
2018-07-17T19:40:59.916Z,3.97
2018-07-17T19:43:28.002Z,5.10
2018-07-17T19:45:56.029Z,4.50
2018-07-17T19:48:24.109Z,4.13
2018-07-17T19:50:52.225Z,4.20
2018-07-17T19:53:20.285Z,5.27
2018-07-17T19:55:48.349Z,4.50
2018-07-17T19:58:16.401Z,4.47
2018-07-17T20:00:44.846Z,5.47
2018-07-17T20:03:12.884Z,4.80
2018-07-17T20:05:40.949Z,5.30
2018-07-17T20:08:09.164Z,5.10
2018-07-17T20:10:37.179Z,5.33
2018-07-17T20:13:05.273Z,4.73
2018-07-17T20:15:33.348Z,5.10
2018-07-17T20:18:01.430Z,4.67
2018-07-17T20:20:29.468Z,5.30
2018-07-17T20:22:57.517Z,5.03
2018-07-17T20:25:25.572Z,4.97
2018-07-17T20:27:53.627Z,4.97
2018-07-17T20:30:21.699Z,4.87
2018-07-17T20:32:49.747Z,5.53
2018-07-17T20:35:17.833Z,5.33
2018-07-17T20:37:45.882Z,5.30
2018-07-17T20:40:13.916Z,5.13
2018-07-17T20:42:42.089Z,5.00
2018-07-17T20:45:10.140Z,4.97
2018-07-17T20:47:38.197Z,5.57
2018-07-17T20:50:06.272Z,5.00
2018-07-17T20:52:34.389Z,5.80
2018-07-17T20:55:02.401Z,5.33
2018-07-17T20:57:30.468Z,5.50
2018-07-17T20:59:58.537Z,5.03
2018-07-17T21:02:27.168Z,5.40
2018-07-17T21:04:55.061Z,5.30
2018-07-17T21:07:23.136Z,7.47
2018-07-17T21:09:51.198Z,7.87
2018-07-17T21:12:19.232Z,7.43
2018-07-17T21:14:47.333Z,6.50
2018-07-17T21:17:15.437Z,6.70
2018-07-17T21:19:43.552Z,6.13
2018-07-17T21:22:11.756Z,6.27
2018-07-17T21:24:39.797Z,6.23
2018-07-17T21:27:07.856Z,5.43
2018-07-17T21:29:35.981Z,6.43
2018-07-17T21:32:04.132Z,6.37
2018-07-17T21:34:32.300Z,6.77
2018-07-17T21:37:00.409Z,5.10
2018-07-17T21:39:28.558Z,6.47
2018-07-17T21:41:57.035Z,6.10
2018-07-17T21:44:25.116Z,5.73
2018-07-17T21:46:53.304Z,5.90
2018-07-17T21:49:21.473Z,5.83
2018-07-17T21:51:49.568Z,6.30
2018-07-17T21:54:17.685Z,6.30
2018-07-17T21:56:49.668Z,6.40
2018-07-17T21:59:17.790Z,6.13
2018-07-17T22:04:37.354Z,6.83
2018-07-17T22:07:05.465Z,5.80
2018-07-17T22:09:33.513Z,6.93
2018-07-17T22:12:01.688Z,6.00
2018-07-17T22:14:29.734Z,6.20
2018-07-17T22:16:57.838Z,5.87
2018-07-17T22:19:25.939Z,6.27
2018-07-17T22:21:54.094Z,5.80
2018-07-17T22:24:22.250Z,6.33
2018-07-17T22:26:50.372Z,6.70
2018-07-17T22:29:18.429Z,6.73
2018-07-17T22:31:46.602Z,7.70
2018-07-17T22:34:14.669Z,7.27
2018-07-17T22:36:42.717Z,6.83
2018-07-17T22:39:10.961Z,7.33
2018-07-17T22:41:39.081Z,6.63
2018-07-17T22:44:07.554Z,7.23
2018-07-17T22:46:35.629Z,7.93
2018-07-17T22:49:03.721Z,7.17
2018-07-17T22:51:32.097Z,7.60
2018-07-17T22:54:00.141Z,6.97
2018-07-17T22:56:28.234Z,7.07
2018-07-17T22:58:56.281Z,6.70
2018-07-17T23:01:24.337Z,7.33
2018-07-17T23:03:52.378Z,6.43
2018-07-17T23:06:20.458Z,5.87
2018-07-17T23:08:48.836Z,6.23
2018-07-17T23:11:17.324Z,6.10
2018-07-17T23:13:45.364Z,6.17
2018-07-17T23:16:13.444Z,6.40
2018-07-17T23:18:41.494Z,6.60
2018-07-17T23:21:09.541Z,5.53
2018-07-17T23:23:37.640Z,6.47
2018-07-17T23:26:05.667Z,6.97
2018-07-17T23:28:33.716Z,6.30
2018-07-17T23:31:01.761Z,5.47
2018-07-17T23:33:29.801Z,6.83
2018-07-17T23:35:57.650Z,6.47
2018-07-17T23:38:25.744Z,5.87
2018-07-17T23:40:53.780Z,6.63
2018-07-17T23:43:21.846Z,5.50
2018-07-17T23:45:49.912Z,6.50
2018-07-17T23:48:17.991Z,6.33
2018-07-17T23:50:46.025Z,7.00
2018-07-17T23:53:13.880Z,5.90
2018-07-17T23:55:41.912Z,6.57
2018-07-17T23:58:09.998Z,6.63
